Activity Log for neumann1989

TypeNameInfoDate
TrackWed May 27 08:43:59 GMT+02:00 202091.32 NM, 77.63 Knots avg, 113.15 Knots max, 1.18 Hours, Tracked on AndroidWednesday, May 27th, 2020
TrackSat May 23 15:16:21 GMT+02:00 2020125.99 NM, 53.75 Knots avg, 146.32 Knots max, 2.34 Hours, Tracked on AndroidSaturday, May 23rd, 2020
TrackFri May 22 19:57:31 GMT+02:00 202020.74 NM, 64.94 Knots avg, 117.38 Knots max, 0.32 Hours, Tracked on AndroidFriday, May 22nd, 2020
1 MarkerDefault Way PointsLat 9.97591, Lon 53.614, Exported from AndroidFriday, April 17th, 2020
Track28.01.2020, 19:12:30201.44 NM, 76.22 Knots avg, 86.89 Knots max, 2.64 Hours, Tracked on iOSTuesday, January 28th, 2020
Multiple MarkersDefault Way PointsExported 2, markers from iOSTuesday, January 28th, 2020
Track27.01.2020, 08:52:5728.70 NM, 55.52 Knots avg, 86.50 Knots max, 0.52 Hours, Tracked on iOSMonday, January 27th, 2020
Track26.01.2020, 20:39:4694.23 NM, 80.69 Knots avg, 86.85 Knots max, 1.17 Hours, Tracked on iOSSunday, January 26th, 2020
Track26.01.2020, 17:39:4244.69 NM, 94.58 Knots avg, 86.85 Knots max, 0.47 Hours, Tracked on iOSSunday, January 26th, 2020
Track26.01.2020, 16:00:5523.58 NM, 90.99 Knots avg, 83.20 Knots max, 0.26 Hours, Tracked on iOSSunday, January 26th, 2020
Track24.01.2020, 15:08:2962.13 NM, 91.25 Knots avg, 86.85 Knots max, 0.68 Hours, Tracked on iOSFriday, January 24th, 2020
Track24.01.2020, 13:06:10120.66 NM, 78.98 Knots avg, 86.89 Knots max, 1.53 Hours, Tracked on iOSFriday, January 24th, 2020
1 MarkerDefault Way PointsLat 6.75415, Lon 53.5709, Exported from iOSThursday, January 23rd, 2020
Track22.01.2020, 20:58:4570.09 NM, 82.16 Knots avg, 86.54 Knots max, 0.85 Hours, Tracked on iOSWednesday, January 22nd, 2020
Track07.01.2020, 18:02:3095.31 NM, 46.16 Knots avg, 86.89 Knots max, 2.06 Hours, Tracked on iOSTuesday, January 7th, 2020
Track23.12.2019, 13:46:12123.80 NM, 56.63 Knots avg, 86.87 Knots max, 2.19 Hours, Tracked on iOSMonday, December 23rd, 2019
Track23.12.2019, 10:53:15129.24 NM, 109.50 Knots avg, 86.89 Knots max, 1.18 Hours, Tracked on iOSMonday, December 23rd, 2019
Track28.11.2019, 14:58:47153.85 NM, 73.47 Knots avg, 86.89 Knots max, 2.09 Hours, Tracked on iOSThursday, November 28th, 2019
Track27.11.2019, 16:53:52142.93 NM, 55.11 Knots avg, 86.89 Knots max, 2.59 Hours, Tracked on iOSWednesday, November 27th, 2019
Track26.11.2019, 19:03:14162.54 NM, 58.19 Knots avg, 86.89 Knots max, 2.79 Hours, Tracked on iOSTuesday, November 26th, 2019
Track26.11.2019, 14:47:5272.19 NM, 74.36 Knots avg, 86.89 Knots max, 0.97 Hours, Tracked on iOSTuesday, November 26th, 2019
Track25.11.2019, 14:59:2782.00 NM, 77.06 Knots avg, 86.89 Knots max, 1.06 Hours, Tracked on iOSMonday, November 25th, 2019
Track25.11.2019, 06:43:4940.47 NM, 45.56 Knots avg, 86.73 Knots max, 0.89 Hours, Tracked on iOSMonday, November 25th, 2019
Track21.11.2019, 17:49:1279.80 NM, 39.26 Knots avg, 86.89 Knots max, 2.03 Hours, Tracked on iOSThursday, November 21st, 2019
Track21.11.2019, 14:22:35135.00 NM, 73.62 Knots avg, 86.89 Knots max, 1.83 Hours, Tracked on iOSThursday, November 21st, 2019
Track20.11.2019, 13:30:00208.22 NM, 57.55 Knots avg, 86.87 Knots max, 3.62 Hours, Tracked on iOSWednesday, November 20th, 2019
Track31.10.2019, 18:25:5271.06 NM, 98.35 Knots avg, 86.64 Knots max, 0.72 Hours, Tracked on iOSThursday, October 31st, 2019
Track31.10.2019, 00:38:0489.59 NM, 53.63 Knots avg, 86.89 Knots max, 1.67 Hours, Tracked on iOSThursday, October 31st, 2019
Track30.10.2019, 12:47:45163.32 NM, 104.73 Knots avg, 86.02 Knots max, 1.56 Hours, Tracked on iOSWednesday, October 30th, 2019
Track30.10.2019, 08:57:22116.42 NM, 49.54 Knots avg, 86.87 Knots max, 2.35 Hours, Tracked on iOSWednesday, October 30th, 2019
Track29.10.2019, 17:50:1692.42 NM, 49.92 Knots avg, 86.81 Knots max, 1.85 Hours, Tracked on iOSTuesday, October 29th, 2019
Track24.09.2019, 11:43:45132.58 NM, 93.99 Knots avg, 86.60 Knots max, 1.41 Hours, Tracked on iOSTuesday, September 24th, 2019
Track20.09.2019, 16:06:48106.97 NM, 75.45 Knots avg, 86.89 Knots max, 1.42 Hours, Tracked on iOSFriday, September 20th, 2019
Track17.09.2019, 16:25:0037.98 NM, 88.05 Knots avg, 86.89 Knots max, 0.43 Hours, Tracked on iOSTuesday, September 17th, 2019
Track17.09.2019, 11:48:04120.73 NM, 114.29 Knots avg, 82.38 Knots max, 1.06 Hours, Tracked on iOSTuesday, September 17th, 2019
Track10.08.2019, 10:55:41208.87 NM, 65.50 Knots avg, 86.89 Knots max, 3.19 Hours, Tracked on iOSSaturday, August 10th, 2019
Track10.08.2019, 09:34:0030.41 NM, 59.44 Knots avg, 86.58 Knots max, 0.51 Hours, Tracked on iOSSaturday, August 10th, 2019
Track10.08.2019, 06:20:34231.32 NM, 95.10 Knots avg, 86.89 Knots max, 2.43 Hours, Tracked on iOSSaturday, August 10th, 2019
Track09.08.2019, 14:25:37173.48 NM, 81.98 Knots avg, 86.89 Knots max, 2.12 Hours, Tracked on iOSFriday, August 9th, 2019
Track09.08.2019, 10:19:45150.53 NM, 83.68 Knots avg, 86.89 Knots max, 1.80 Hours, Tracked on iOSFriday, August 9th, 2019
Track02.08.2019, 07:57:47227.07 NM, 91.01 Knots avg, 86.89 Knots max, 2.50 Hours, Tracked on iOSFriday, August 2nd, 2019
Track18.07.2019, 13:52:13174.52 NM, 67.85 Knots avg, 86.89 Knots max, 2.57 Hours, Tracked on iOSThursday, July 18th, 2019
Track17.07.2019, 06:47:4617.17 NM, 39.67 Knots avg, 61.89 Knots max, 0.43 Hours, Tracked on iOSWednesday, July 17th, 2019